Time;durP1;ratioP1;P1;durP2;ratioP2;P2;SDS_P1;SDS_P2;PMS_P1;PMS_P2;Temp;Humidity;BMP_temperature;BMP_pressure;BME280_temperature;BME280_humidity;BME280_pressure;Samples;Min_cycle;Max_cycle;Signal;HPM_P1;HPM_P2
2023/02/20 00:00:40;;;;;;;2.77;1.10;;;7.90;97.70;;;;;;5072099;28;20213;-63
2023/02/20 00:03:11;;;;;;;3.30;1.00;;;7.90;97.60;;;;;;5066949;28;20660;-63
2023/02/20 00:05:41;;;;;;;2.20;1.00;;;7.90;97.60;;;;;;5071982;28;20217;-63
2023/02/20 00:08:08;;;;;;;4.93;1.10;;;8.00;97.60;;;;;;5067970;28;20185;-64
2023/02/20 00:10:35;;;;;;;4.17;1.00;;;8.00;97.60;;;;;;5070154;28;20198;-64
2023/02/20 00:13:04;;;;;;;2.00;1.30;;;8.00;97.60;;;;;;5069616;28;20193;-64
2023/02/20 00:15:31;;;;;;;3.53;0.70;;;8.00;97.40;;;;;;5069904;28;20277;-64
2023/02/20 00:17:59;;;;;;;2.87;0.80;;;8.00;97.40;;;;;;5068321;28;20194;-64
2023/02/20 00:20:29;;;;;;;3.13;0.97;;;8.00;97.30;;;;;;5067744;28;20664;-65
2023/02/20 00:22:56;;;;;;;3.17;0.90;;;8.10;97.40;;;;;;5067661;28;20290;-65
2023/02/20 00:25:23;;;;;;;3.70;1.00;;;8.00;97.20;;;;;;5065980;28;20757;-65
2023/02/20 00:27:50;;;;;;;4.83;1.23;;;8.00;97.20;;;;;;5065078;28;20205;-64
2023/02/20 00:30:20;;;;;;;2.13;0.90;;;8.00;97.10;;;;;;5063929;28;20206;-64
2023/02/20 00:32:47;;;;;;;2.53;0.97;;;8.10;97.20;;;;;;5066548;28;20608;-64
2023/02/20 00:35:15;;;;;;;4.10;1.33;;;8.00;97.00;;;;;;5064633;28;20197;-64
2023/02/20 00:37:45;;;;;;;1.37;0.70;;;8.00;97.40;;;;;;5100241;28;20206;-65
2023/02/20 00:40:13;;;;;;;1.70;0.77;;;8.00;97.00;;;;;;5068476;28;20193;-65
2023/02/20 00:42:42;;;;;;;3.10;1.00;;;8.00;97.00;;;;;;5066406;28;20200;-65
2023/02/20 00:45:10;;;;;;;3.67;1.20;;;8.00;97.20;;;;;;5062850;28;20213;-65
2023/02/20 00:47:37;;;;;;;2.97;1.20;;;7.90;97.00;;;;;;5065782;28;20202;-65
2023/02/20 00:50:06;;;;;;;1.27;0.80;;;7.90;96.90;;;;;;5063248;28;20205;-65
2023/02/20 00:52:34;;;;;;;1.67;0.73;;;7.90;96.90;;;;;;5063816;28;20205;-65
2023/02/20 00:55:03;;;;;;;1.07;0.80;;;8.00;96.90;;;;;;5065417;28;21012;-65
2023/02/20 00:57:31;;;;;;;1.30;0.90;;;8.00;96.90;;;;;;5068026;28;20221;-65
2023/02/20 00:59:58;;;;;;;2.80;0.90;;;8.00;96.90;;;;;;5068549;28;20225;-65
2023/02/20 01:02:25;;;;;;;2.80;0.60;;;8.00;96.90;;;;;;5069003;28;20253;-65
2023/02/20 01:04:52;;;;;;;1.63;0.90;;;8.00;96.80;;;;;;5067960;28;20218;-65
2023/02/20 01:07:19;;;;;;;4.30;0.90;;;8.10;96.80;;;;;;5067237;28;20193;-65
2023/02/20 01:09:46;;;;;;;3.33;0.90;;;8.10;96.70;;;;;;5068465;28;20201;-65
2023/02/20 01:12:17;;;;;;;0.83;0.80;;;8.10;96.60;;;;;;5067438;28;20225;-65
2023/02/20 01:14:44;;;;;;;3.63;0.80;;;8.10;96.50;;;;;;5066587;28;20198;-64
2023/02/20 01:17:13;;;;;;;1.30;0.83;;;8.10;96.50;;;;;;5067533;28;20198;-64
2023/02/20 01:19:41;;;;;;;3.00;0.80;;;8.20;96.50;;;;;;5066072;28;20251;-64
2023/02/20 01:22:08;;;;;;;3.27;0.90;;;8.10;96.40;;;;;;5069184;28;20196;-64
2023/02/20 01:24:36;;;;;;;1.97;0.70;;;8.20;96.40;;;;;;5068828;28;20834;-64
2023/02/20 01:27:03;;;;;;;3.43;0.87;;;8.20;96.30;;;;;;5066110;28;20212;-64
2023/02/20 01:29:32;;;;;;;1.67;0.80;;;8.20;96.20;;;;;;5064900;28;20194;-65
2023/02/20 01:31:59;;;;;;;2.73;0.90;;;8.10;96.00;;;;;;5062151;28;20239;-64
2023/02/20 01:34:26;;;;;;;1.47;0.80;;;7.60;95.80;;;;;;5066086;28;20198;-65
2023/02/20 01:36:56;;;;;;;2.07;0.77;;;8.10;96.00;;;;;;5068364;28;20201;-65
2023/02/20 01:39:27;;;;;;;0.97;0.80;;;8.20;96.00;;;;;;5066023;28;20209;-65
2023/02/20 01:41:58;;;;;;;1.53;0.80;;;8.20;96.00;;;;;;5068329;28;20225;-65
2023/02/20 01:44:29;;;;;;;2.10;1.00;;;8.20;95.90;;;;;;5064010;28;20237;-65
2023/02/20 01:46:59;;;;;;;1.33;0.80;;;8.20;95.90;;;;;;5066933;28;20207;-65
2023/02/20 01:49:31;;;;;;;3.57;1.10;;;8.20;95.90;;;;;;5068959;28;20185;-65
2023/02/20 01:52:03;;;;;;;2.33;0.97;;;8.20;95.80;;;;;;5068118;28;20189;-65
2023/02/20 01:54:32;;;;;;;1.50;0.83;;;8.20;95.90;;;;;;5064988;28;20541;-65
2023/02/20 01:57:02;;;;;;;3.70;1.10;;;8.20;95.80;;;;;;5064697;28;20212;-64
2023/02/20 01:59:33;;;;;;;6.73;1.33;;;8.10;95.70;;;;;;5066794;28;20201;-65
2023/02/20 02:02:04;;;;;;;2.10;1.10;;;8.10;95.60;;;;;;5524296;22;20209;-68
2023/02/20 02:04:32;;;;;;;1.37;0.60;;;8.10;95.60;;;;;;4999617;28;20645;-70
2023/02/20 02:06:59;;;;;;;2.17;0.93;;;8.10;95.60;;;;;;5014193;28;20631;-70
2023/02/20 02:09:39;;;;;;;1.00;0.73;;;8.10;95.60;;;;;;5007905;28;20203;-71
2023/02/20 02:12:07;;;;;;;4.07;0.97;;;8.10;95.60;;;;;;5009529;28;20630;-71
2023/02/20 02:14:34;;;;;;;1.37;1.03;;;8.00;95.50;;;;;;5014630;28;20535;-71
2023/02/20 02:17:34;;;;;;;1.53;0.87;;;8.00;95.40;;;;;;5010154;28;20209;-68
2023/02/20 02:20:35;;;;;;;4.17;1.07;;;8.00;95.30;;;;;;5006664;28;20218;-69
2023/02/20 02:23:31;;;;;;;2.17;0.90;;;8.00;95.30;;;;;;4988175;28;20204;-69
2023/02/20 02:26:06;;;;;;;2.53;0.70;;;7.90;95.30;;;;;;4979333;28;20230;-69
2023/02/20 02:29:05;;;;;;;4.67;1.00;;;7.90;95.30;;;;;;5010303;28;20294;-70
2023/02/20 02:32:11;;;;;;;1.07;0.70;;;8.00;95.30;;;;;;5004465;28;20203;-69
2023/02/20 02:35:16;;;;;;;5.37;0.90;;;8.00;95.20;;;;;;5004301;28;20187;-71
2023/02/20 02:37:49;;;;;;;2.57;0.70;;;8.00;95.30;;;;;;5003834;28;20313;-70
2023/02/20 02:40:26;;;;;;;2.10;0.90;;;8.00;95.20;;;;;;5007769;28;20246;-69
2023/02/20 02:43:07;;;;;;;1.80;0.80;;;8.10;95.30;;;;;;5009267;28;20545;-69
2023/02/20 02:45:43;;;;;;;2.43;0.60;;;8.00;95.20;;;;;;5010369;28;20302;-70
2023/02/20 02:48:19;;;;;;;2.17;1.10;;;8.10;95.20;;;;;;5007410;28;20240;-69
2023/02/20 02:50:48;;;;;;;1.13;0.83;;;8.10;95.20;;;;;;5004249;28;20217;-70
2023/02/20 02:53:18;;;;;;;2.80;0.90;;;8.10;95.20;;;;;;5007321;28;20594;-70
2023/02/20 02:55:45;;;;;;;1.10;0.87;;;8.10;95.20;;;;;;5006624;28;20195;-70
2023/02/20 02:58:13;;;;;;;3.30;1.40;;;8.10;95.20;;;;;;5012698;28;20200;-70
2023/02/20 03:00:46;;;;;;;4.73;0.80;;;8.10;95.30;;;;;;5012901;28;20203;-70
2023/02/20 03:03:18;;;;;;;1.70;0.83;;;8.10;95.20;;;;;;5006137;28;20234;-69
2023/02/20 03:05:50;;;;;;;2.07;1.10;;;8.10;95.20;;;;;;5008725;28;20216;-69
2023/02/20 03:08:30;;;;;;;1.90;0.90;;;8.00;95.30;;;;;;5010683;28;20203;-70
2023/02/20 03:11:02;;;;;;;1.57;0.90;;;8.00;95.40;;;;;;5011883;28;20200;-69
2023/02/20 03:16:28;;;;;;;6.67;1.33;;;8.00;95.50;;;;;;5011590;28;20231;-70
2023/02/20 03:19:00;;;;;;;2.37;1.07;;;8.00;95.50;;;;;;5015984;28;20539;-69
2023/02/20 03:21:31;;;;;;;1.87;0.83;;;8.00;95.60;;;;;;5010301;28;20201;-70
2023/02/20 03:24:02;;;;;;;1.70;1.03;;;8.00;95.50;;;;;;5010495;28;20278;-69
2023/02/20 03:26:36;;;;;;;0.73;0.70;;;8.00;95.50;;;;;;5011666;28;20238;-70
2023/02/20 03:29:10;;;;;;;1.13;0.70;;;8.00;95.50;;;;;;5011543;28;20271;-71
2023/02/20 03:31:41;;;;;;;3.47;0.97;;;8.00;95.40;;;;;;5011154;28;20191;-70
2023/02/20 03:45:32;;;;;;;1.73;0.80;;;8.00;95.50;;;;;;5029355;28;20267;-69
2023/02/20 03:48:07;;;;;;;1.33;0.80;;;8.00;95.50;;;;;;5009510;28;20623;-70
2023/02/20 03:50:34;;;;;;;0.97;0.73;;;8.00;95.40;;;;;;5014287;28;20186;-69
2023/02/20 03:53:02;;;;;;;1.70;0.80;;;8.00;95.40;;;;;;5013115;28;20200;-70
2023/02/20 03:55:31;;;;;;;2.10;0.60;;;8.00;95.50;;;;;;5018293;28;20191;-70
2023/02/20 03:58:07;;;;;;;0.87;0.70;;;7.90;95.50;;;;;;5010215;28;20238;-71
2023/02/20 04:00:40;;;;;;;2.00;0.67;;;7.90;95.50;;;;;;5008915;28;20191;-70
2023/02/20 04:03:14;;;;;;;1.90;0.70;;;7.90;95.50;;;;;;5009439;28;20230;-70
2023/02/20 04:05:47;;;;;;;1.43;0.80;;;7.90;95.60;;;;;;5006347;28;20218;-71
2023/02/20 04:08:22;;;;;;;9.77;6.97;;;7.90;95.60;;;;;;5007782;28;20563;-70
2023/02/20 04:10:56;;;;;;;3.27;0.60;;;7.90;95.60;;;;;;5011256;28;20201;-70
2023/02/20 04:13:25;;;;;;;1.20;0.90;;;7.90;95.60;;;;;;5010153;28;20200;-70
2023/02/20 04:15:54;;;;;;;1.30;0.60;;;7.80;95.60;;;;;;5010825;28;20226;-69
2023/02/20 04:18:23;;;;;;;1.90;0.90;;;7.80;95.70;;;;;;5009306;28;20550;-69
2023/02/20 04:20:55;;;;;;;1.80;0.77;;;7.80;95.90;;;;;;5008270;28;20200;-70
2023/02/20 04:23:40;;;;;;;2.10;0.90;;;7.80;95.90;;;;;;5009629;28;20211;-70
2023/02/20 04:26:14;;;;;;;1.70;1.10;;;7.80;96.00;;;;;;5009776;28;20266;-70
2023/02/20 04:28:44;;;;;;;1.97;0.70;;;7.70;95.90;;;;;;5012310;28;20281;-70
2023/02/20 04:31:17;;;;;;;0.93;0.83;;;7.70;96.00;;;;;;5010611;28;20200;-70
2023/02/20 04:33:44;;;;;;;2.97;1.00;;;7.70;96.10;;;;;;5010127;28;20226;-70
2023/02/20 04:36:16;;;;;;;1.43;0.80;;;7.70;96.10;;;;;;5010321;28;20237;-70
2023/02/20 04:38:44;;;;;;;2.00;0.80;;;7.70;96.10;;;;;;5009278;28;20191;-71
2023/02/20 04:41:16;;;;;;;3.17;0.90;;;7.70;96.20;;;;;;5008549;28;20206;-70
2023/02/20 04:43:43;;;;;;;1.67;0.60;;;7.70;96.20;;;;;;5011975;28;20281;-70
2023/02/20 04:46:11;;;;;;;4.67;1.20;;;7.60;96.20;;;;;;5008789;28;20692;-69
2023/02/20 04:48:38;;;;;;;2.60;1.00;;;7.60;96.30;;;;;;5008783;28;20203;-70
2023/02/20 04:51:06;;;;;;;1.87;0.80;;;7.60;96.40;;;;;;5026977;28;20195;-71
2023/02/20 04:53:34;;;;;;;1.40;1.00;;;7.40;96.30;;;;;;5013779;28;20202;-71
2023/02/20 04:56:01;;;;;;;2.63;0.97;;;7.60;96.50;;;;;;5010021;28;20199;-70
2023/02/20 04:58:32;;;;;;;1.27;0.80;;;7.50;96.30;;;;;;5017333;28;20202;-71
2023/02/20 05:01:09;;;;;;;1.67;0.80;;;7.50;96.30;;;;;;5011933;28;20234;-71
2023/02/20 05:03:36;;;;;;;0.93;0.83;;;7.50;96.30;;;;;;5008335;28;20251;-70
2023/02/20 05:06:03;;;;;;;1.20;0.73;;;7.50;96.30;;;;;;5007706;28;20291;-70
2023/02/20 05:08:31;;;;;;;0.83;0.83;;;7.60;96.40;;;;;;5015100;28;20206;-70
2023/02/20 05:10:58;;;;;;;2.93;0.93;;;7.50;96.40;;;;;;5008268;28;20203;-71
2023/02/20 05:13:25;;;;;;;1.20;1.10;;;7.50;96.30;;;;;;5011984;28;20268;-71
2023/02/20 05:15:54;;;;;;;3.00;1.20;;;7.50;96.20;;;;;;5016234;28;20252;-72
2023/02/20 05:18:25;;;;;;;2.37;0.90;;;7.50;96.20;;;;;;5007626;28;20195;-71
2023/02/20 05:23:37;;;;;;;4.10;1.00;;;7.50;96.20;;;;;;5025646;28;20643;-71
2023/02/20 05:26:08;;;;;;;2.90;1.23;;;7.50;96.20;;;;;;5007211;28;20586;-70
2023/02/20 05:28:35;;;;;;;2.03;1.10;;;7.50;96.10;;;;;;5012073;28;20535;-71
2023/02/20 05:31:03;;;;;;;1.03;0.80;;;7.50;96.10;;;;;;5012621;28;20659;-69
2023/02/20 05:33:30;;;;;;;1.20;1.00;;;7.40;96.10;;;;;;5012313;28;20210;-70
2023/02/20 05:35:58;;;;;;;0.93;0.70;;;7.40;96.20;;;;;;5009785;28;20195;-71
2023/02/20 05:38:25;;;;;;;1.10;0.90;;;7.40;96.20;;;;;;5012456;28;20576;-70
2023/02/20 05:40:52;;;;;;;2.50;1.00;;;7.40;96.20;;;;;;5006713;28;20323;-71
2023/02/20 05:43:19;;;;;;;1.13;0.80;;;7.40;96.30;;;;;;5010574;28;20195;-71
2023/02/20 05:45:46;;;;;;;1.77;0.90;;;7.40;96.30;;;;;;5009298;28;20230;-70
2023/02/20 05:48:15;;;;;;;1.87;0.80;;;7.40;96.40;;;;;;5005144;28;20431;-70
2023/02/20 05:50:43;;;;;;;3.20;1.20;;;7.40;96.40;;;;;;5007342;28;20226;-69
2023/02/20 05:53:17;;;;;;;2.97;1.10;;;7.40;96.80;;;;;;5013118;28;20199;-69
2023/02/20 05:55:44;;;;;;;2.27;1.13;;;7.40;96.50;;;;;;5003188;28;20203;-70
2023/02/20 05:58:11;;;;;;;1.67;0.90;;;7.40;96.60;;;;;;5008657;28;20222;-70
2023/02/20 06:00:38;;;;;;;1.83;0.90;;;7.40;96.60;;;;;;5006154;28;20271;-70
2023/02/20 06:03:07;;;;;;;2.03;1.00;;;7.40;96.70;;;;;;5009447;28;20319;-70
2023/02/20 06:05:36;;;;;;;1.53;1.03;;;7.30;96.80;;;;;;5015830;28;20210;-70
2023/02/20 06:08:03;;;;;;;1.63;1.30;;;7.30;97.00;;;;;;5010133;28;20195;-70
2023/02/20 06:10:30;;;;;;;2.30;1.20;;;7.20;97.00;;;;;;5013788;28;20274;-70
2023/02/20 06:12:57;;;;;;;3.00;1.50;;;7.20;97.30;;;;;;5015404;28;20703;-70
2023/02/20 06:15:24;;;;;;;2.60;1.10;;;7.20;97.40;;;;;;5014216;28;20187;-70
2023/02/20 06:17:52;;;;;;;3.67;1.30;;;7.10;97.60;;;;;;5013036;28;20195;-70
2023/02/20 06:20:19;;;;;;;2.53;1.00;;;7.10;97.80;;;;;;5003147;28;20199;-70
2023/02/20 06:22:49;;;;;;;2.27;1.10;;;7.10;97.90;;;;;;5007039;28;20269;-70
2023/02/20 06:25:16;;;;;;;1.97;1.20;;;7.10;98.00;;;;;;5008763;28;20195;-70
2023/02/20 06:27:43;;;;;;;1.40;1.20;;;7.10;98.10;;;;;;5007952;28;20225;-70
2023/02/20 06:30:12;;;;;;;1.90;1.30;;;7.10;98.20;;;;;;5010012;28;20538;-70
2023/02/20 06:32:39;;;;;;;1.20;1.10;;;7.10;98.40;;;;;;5008534;28;20251;-70
2023/02/20 06:35:07;;;;;;;1.33;1.10;;;7.00;98.60;;;;;;5006624;28;20220;-69
2023/02/20 06:37:34;;;;;;;2.17;1.13;;;7.00;98.70;;;;;;5010573;28;20198;-69
2023/02/20 06:40:04;;;;;;;2.83;1.70;;;7.00;98.90;;;;;;5011943;28;20577;-69
2023/02/20 06:42:31;;;;;;;2.03;1.30;;;6.90;99.00;;;;;;5010178;28;20205;-69
2023/02/20 06:44:58;;;;;;;2.10;1.40;;;6.90;99.00;;;;;;5009246;28;20202;-70
2023/02/20 06:47:25;;;;;;;2.20;1.40;;;;;;;;;;5009799;28;20215;-69
2023/02/20 06:49:52;;;;;;;1.37;1.20;;;6.90;99.10;;;;;;5011894;28;20209;-70
2023/02/20 06:52:20;;;;;;;1.30;1.20;;;6.90;99.60;;;;;;5007512;28;20663;-70
2023/02/20 06:54:47;;;;;;;1.53;1.20;;;6.80;99.70;;;;;;5013836;28;20201;-70
2023/02/20 06:57:15;;;;;;;3.70;1.93;;;6.90;99.70;;;;;;5007664;28;20210;-69
2023/02/20 06:59:46;;;;;;;1.70;1.23;;;6.80;99.90;;;;;;4993648;28;20547;-69
2023/02/20 07:02:15;;;;;;;1.40;1.30;;;6.80;99.90;;;;;;5000836;28;20234;-69
2023/02/20 07:04:42;;;;;;;1.33;1.10;;;6.80;99.90;;;;;;5000342;28;20219;-71
2023/02/20 07:07:09;;;;;;;1.73;1.30;;;6.80;99.90;;;;;;5008657;28;20264;-70
2023/02/20 07:09:36;;;;;;;2.10;1.90;;;6.80;99.90;;;;;;5004746;28;20194;-71
2023/02/20 07:12:04;;;;;;;1.90;1.80;;;6.80;99.90;;;;;;5006607;28;20298;-71
2023/02/20 07:14:33;;;;;;;2.43;1.80;;;6.70;99.90;;;;;;5005988;28;20195;-70
2023/02/20 07:17:02;;;;;;;2.67;1.97;;;6.80;99.90;;;;;;5005674;28;20198;-70
2023/02/20 07:19:29;;;;;;;1.70;1.40;;;6.80;99.90;;;;;;5003164;28;20509;-69
2023/02/20 07:21:56;;;;;;;1.50;1.10;;;6.70;99.90;;;;;;5014021;28;20202;-70
2023/02/20 07:24:23;;;;;;;3.00;1.60;;;6.70;99.90;;;;;;5003898;28;20275;-70
2023/02/20 07:26:50;;;;;;;2.60;1.67;;;6.70;99.90;;;;;;5011282;28;20222;-70
2023/02/20 07:29:18;;;;;;;1.60;1.23;;;6.70;99.90;;;;;;5003953;28;20198;-71
2023/02/20 07:31:46;;;;;;;1.63;1.53;;;6.70;99.90;;;;;;5005592;28;20318;-70
2023/02/20 07:34:13;;;;;;;2.20;1.60;;;6.80;99.90;;;;;;5020832;28;20644;-71
2023/02/20 07:36:41;;;;;;;2.47;1.53;;;6.70;99.90;;;;;;5004758;28;20262;-70
2023/02/20 07:39:08;;;;;;;1.70;1.60;;;6.70;99.90;;;;;;5007338;28;20232;-69
2023/02/20 07:41:35;;;;;;;1.87;1.70;;;6.70;99.90;;;;;;5005632;28;20680;-70
2023/02/20 07:44:05;;;;;;;1.33;1.23;;;6.60;99.90;;;;;;5008165;28;20236;-70
2023/02/20 07:46:33;;;;;;;1.60;1.50;;;6.60;99.90;;;;;;5007061;28;20657;-70
2023/02/20 07:49:03;;;;;;;1.70;1.60;;;6.60;99.90;;;;;;5008554;28;20303;-71
2023/02/20 07:51:31;;;;;;;2.33;1.60;;;6.50;99.90;;;;;;5006435;28;20201;-69
2023/02/20 07:53:58;;;;;;;2.67;2.00;;;6.50;99.90;;;;;;5012045;28;20664;-71
2023/02/20 07:56:25;;;;;;;5.10;2.00;;;6.50;99.90;;;;;;5009786;28;20743;-71
2023/02/20 07:58:52;;;;;;;2.23;1.47;;;6.50;99.90;;;;;;5011248;28;20199;-71
2023/02/20 08:01:20;;;;;;;2.40;1.70;;;6.50;99.90;;;;;;5009450;28;20675;-71
2023/02/20 08:03:47;;;;;;;2.20;1.93;;;6.50;99.90;;;;;;5004607;28;20231;-70
2023/02/20 08:06:17;;;;;;;2.00;1.80;;;6.50;99.90;;;;;;5008957;28;20654;-70
2023/02/20 08:08:49;;;;;;;2.00;1.70;;;6.50;99.90;;;;;;5009277;28;20202;-70
2023/02/20 08:11:16;;;;;;;2.10;1.80;;;6.40;99.90;;;;;;5011920;28;20213;-71
2023/02/20 08:13:43;;;;;;;1.53;1.40;;;6.40;99.90;;;;;;5005699;28;20222;-70
2023/02/20 08:16:11;;;;;;;1.53;1.37;;;6.40;99.90;;;;;;5008925;28;20194;-71
2023/02/20 08:18:38;;;;;;;1.03;1.03;;;6.40;99.90;;;;;;5008447;28;20205;-68
2023/02/20 08:21:06;;;;;;;1.10;1.10;;;6.40;99.90;;;;;;5015177;28;20201;-71
2023/02/20 08:23:34;;;;;;;1.53;1.30;;;6.50;99.90;;;;;;5007912;28;20616;-70
2023/02/20 08:26:04;;;;;;;1.60;1.50;;;6.40;99.90;;;;;;5008455;28;20672;-71
2023/02/20 08:28:31;;;;;;;2.17;1.80;;;6.40;99.90;;;;;;5008852;28;20393;-71
2023/02/20 08:30:58;;;;;;;2.53;1.70;;;6.40;99.90;;;;;;5008073;28;20198;-70
2023/02/20 08:33:25;;;;;;;3.27;1.90;;;6.40;99.90;;;;;;5007733;28;20201;-71
2023/02/20 08:35:54;;;;;;;1.73;1.63;;;6.40;99.90;;;;;;5000755;28;20809;-71
2023/02/20 08:38:28;;;;;;;1.80;1.70;;;6.40;99.90;;;;;;5009418;28;20241;-71
2023/02/20 08:40:57;;;;;;;3.03;1.80;;;6.40;99.90;;;;;;5009882;28;20248;-70
2023/02/20 08:43:25;;;;;;;2.10;1.90;;;6.40;99.90;;;;;;5010361;28;20660;-71
2023/02/20 08:45:52;;;;;;;2.50;1.67;;;6.40;99.90;;;;;;5001163;28;20220;-70
2023/02/20 08:48:19;;;;;;;1.90;1.70;;;6.40;99.90;;;;;;5014685;28;20198;-71
2023/02/20 08:50:46;;;;;;;1.67;1.40;;;6.40;99.90;;;;;;5008122;28;20208;-71
2023/02/20 08:53:14;;;;;;;1.80;1.63;;;6.40;99.90;;;;;;5009985;28;20233;-71
2023/02/20 08:55:41;;;;;;;3.03;1.50;;;6.40;99.90;;;;;;5008808;28;20223;-71
2023/02/20 08:58:10;;;;;;;2.47;1.80;;;6.50;99.90;;;;;;5010579;28;20193;-70
2023/02/20 09:00:38;;;;;;;1.93;1.70;;;6.50;99.90;;;;;;5007785;28;20621;-71
2023/02/20 09:03:07;;;;;;;2.07;1.70;;;6.50;99.90;;;;;;5006863;28;20238;-70
2023/02/20 09:05:35;;;;;;;1.60;1.30;;;6.50;99.90;;;;;;5005344;28;20189;-70
2023/02/20 09:08:02;;;;;;;1.60;1.40;;;6.60;99.90;;;;;;5008579;28;20248;-70
2023/02/20 09:10:30;;;;;;;2.10;1.47;;;6.60;99.90;;;;;;5004776;28;20191;-70
2023/02/20 09:12:57;;;;;;;1.60;1.30;;;6.60;99.90;;;;;;5008973;28;20202;-70
2023/02/20 09:15:27;;;;;;;1.17;1.10;;;6.60;99.90;;;;;;5009969;28;20617;-70
2023/02/20 09:17:55;;;;;;;4.30;1.33;;;6.60;99.90;;;;;;5010444;28;20190;-71
2023/02/20 09:20:23;;;;;;;1.43;1.20;;;6.60;99.90;;;;;;5007881;28;20243;-69
2023/02/20 09:22:51;;;;;;;1.77;1.30;;;6.70;99.90;;;;;;5006770;28;20206;-70
2023/02/20 09:25:19;;;;;;;1.43;1.20;;;6.70;99.90;;;;;;5006023;28;20199;-71
2023/02/20 09:27:46;;;;;;;1.70;1.27;;;6.70;99.90;;;;;;5008298;28;20684;-72
2023/02/20 09:30:18;;;;;;;1.10;1.10;;;6.80;99.90;;;;;;5007939;28;20199;-72
2023/02/20 09:32:47;;;;;;;1.20;1.10;;;6.80;99.90;;;;;;5008316;28;20320;-72
2023/02/20 09:35:17;;;;;;;1.30;1.20;;;6.80;99.90;;;;;;5008251;28;20281;-71
2023/02/20 09:37:44;;;;;;;3.20;1.40;;;6.90;99.90;;;;;;5012976;28;20529;-72
2023/02/20 09:40:13;;;;;;;1.53;1.43;;;6.90;99.90;;;;;;5009008;28;20228;-70
2023/02/20 09:42:50;;;;;;;1.77;1.30;;;7.00;99.90;;;;;;5007277;28;20240;-71
2023/02/20 09:45:21;;;;;;;1.60;1.50;;;7.00;99.90;;;;;;5008167;28;20199;-71
2023/02/20 09:48:03;;;;;;;1.97;1.83;;;7.00;99.90;;;;;;5012344;28;20628;-71
2023/02/20 09:50:36;;;;;;;2.40;1.57;;;7.00;99.90;;;;;;5006104;28;20199;-72
2023/02/20 09:53:08;;;;;;;1.33;1.20;;;7.10;99.90;;;;;;5009232;28;20634;-72
2023/02/20 09:55:40;;;;;;;1.90;1.70;;;7.10;99.90;;;;;;5001944;28;20536;-71
2023/02/20 09:58:17;;;;;;;2.10;1.40;;;7.20;99.90;;;;;;5009672;28;20195;-72
2023/02/20 10:00:44;;;;;;;1.60;1.50;;;7.30;99.90;;;;;;5009534;28;20302;-71
2023/02/20 10:03:22;;;;;;;1.67;1.57;;;7.20;99.90;;;;;;5011323;28;20287;-72
2023/02/20 10:05:50;;;;;;;2.13;1.90;;;7.20;99.90;;;;;;5006360;28;20548;-71
2023/02/20 10:08:22;;;;;;;2.03;1.87;;;7.30;99.90;;;;;;5008568;28;20415;-71
2023/02/20 10:10:50;;;;;;;1.83;1.70;;;7.30;99.90;;;;;;5005271;28;21162;-71
2023/02/20 10:13:43;;;;;;;2.03;1.90;;;7.30;99.90;;;;;;5015334;28;20226;-71
2023/02/20 10:16:21;;;;;;;2.37;1.90;;;7.30;99.90;;;;;;5005097;28;20202;-72
2023/02/20 10:19:01;;;;;;;1.73;1.63;;;7.40;99.90;;;;;;5018051;28;20194;-72
2023/02/20 10:21:39;;;;;;;1.97;1.87;;;7.40;99.90;;;;;;5004606;28;20222;-71
2023/02/20 10:24:31;;;;;;;3.33;2.30;;;7.40;99.90;;;;;;5011685;28;20570;-72
2023/02/20 10:27:14;;;;;;;2.93;2.47;;;7.40;99.90;;;;;;5007495;28;20202;-70
2023/02/20 10:29:44;;;;;;;2.47;2.23;;;7.40;99.90;;;;;;5007464;28;20207;-72
2023/02/20 10:32:19;;;;;;;2.47;2.10;;;7.50;99.90;;;;;;5008524;28;20198;-71
2023/02/20 10:34:57;;;;;;;3.40;2.83;;;7.50;99.90;;;;;;5006592;28;20211;-71
2023/02/20 10:37:28;;;;;;;4.50;2.90;;;7.50;99.90;;;;;;5012711;28;20277;-71
2023/02/20 10:40:00;;;;;;;3.47;2.60;;;7.50;99.90;;;;;;5006926;28;20306;-71
2023/02/20 10:42:32;;;;;;;3.33;3.00;;;7.60;99.90;;;;;;5006871;28;20230;-72
2023/02/20 10:45:05;;;;;;;3.00;2.70;;;7.60;99.90;;;;;;5007683;28;20210;-71
2023/02/20 10:47:42;;;;;;;2.47;2.20;;;7.60;99.90;;;;;;5005530;28;20651;-71
2023/02/20 10:50:16;;;;;;;4.30;2.53;;;7.70;99.90;;;;;;5003706;28;20599;-72
2023/02/20 10:52:48;;;;;;;5.83;2.67;;;7.70;99.90;;;;;;5006431;28;20197;-71
2023/02/20 10:55:20;;;;;;;5.27;3.17;;;7.70;99.90;;;;;;5006121;28;20192;-71
2023/02/20 10:57:53;;;;;;;2.90;2.60;;;7.80;99.90;;;;;;5009733;28;20264;-71
2023/02/20 11:00:27;;;;;;;3.33;2.90;;;7.80;99.90;;;;;;5003659;28;20203;-70
2023/02/20 11:02:59;;;;;;;2.73;2.50;;;7.80;99.90;;;;;;5009970;28;20227;-70
2023/02/20 11:05:34;;;;;;;6.30;3.40;;;7.90;99.90;;;;;;5008936;28;20187;-70
2023/02/20 11:08:01;;;;;;;3.63;3.23;;;7.90;99.90;;;;;;5008000;28;20241;-71
2023/02/20 11:10:29;;;;;;;4.83;3.03;;;8.00;99.90;;;;;;5005188;28;20206;-70
2023/02/20 11:13:01;;;;;;;3.40;3.10;;;8.00;99.90;;;;;;5006152;28;20625;-70
2023/02/20 11:15:31;;;;;;;5.57;3.13;;;8.00;99.90;;;;;;5005998;28;20287;-71
2023/02/20 11:17:59;;;;;;;3.50;3.03;;;8.10;99.90;;;;;;5007368;28;20223;-71
2023/02/20 11:20:45;;;;;;;4.43;2.80;;;8.10;99.90;;;;;;5004586;28;20206;-72
2023/02/20 11:23:40;;;;;;;3.67;2.73;;;8.10;99.90;;;;;;5007898;28;20199;-71
2023/02/20 11:26:29;;;;;;;3.83;2.60;;;8.20;99.90;;;;;;5002282;28;20222;-71
2023/02/20 11:29:10;;;;;;;3.30;2.73;;;8.20;99.90;;;;;;5014585;28;20221;-72
2023/02/20 11:31:39;;;;;;;3.30;2.30;;;8.30;99.90;;;;;;5010960;28;20183;-71
2023/02/20 11:34:12;;;;;;;3.50;2.80;;;8.30;99.90;;;;;;5007359;28;20199;-71
2023/02/20 11:36:45;;;;;;;3.53;2.40;;;8.40;99.90;;;;;;5005873;28;20202;-71
2023/02/20 11:39:25;;;;;;;3.87;3.00;;;8.40;99.90;;;;;;5012333;28;20257;-70
2023/02/20 11:42:06;;;;;;;4.17;3.00;;;8.40;99.90;;;;;;5008817;28;20214;-71
2023/02/20 11:44:34;;;;;;;4.20;2.37;;;8.20;99.90;;;;;;5011191;28;20191;-71
2023/02/20 11:47:26;;;;;;;4.30;2.80;;;8.50;99.90;;;;;;5008731;28;20582;-71
2023/02/20 11:50:13;;;;;;;3.30;2.43;;;8.60;99.90;;;;;;4990034;28;20307;-72
2023/02/20 11:52:56;;;;;;;5.90;2.73;;;8.60;99.90;;;;;;5008538;28;20191;-72
2023/02/20 11:55:25;;;;;;;4.97;3.13;;;8.60;99.90;;;;;;5005156;28;20223;-73
2023/02/20 11:57:56;;;;;;;7.40;3.47;;;8.70;99.90;;;;;;5025124;28;20211;-71
2023/02/20 12:00:25;;;;;;;5.30;3.20;;;8.70;99.90;;;;;;5008458;28;20328;-72
2023/02/20 12:02:55;;;;;;;9.43;2.83;;;8.70;99.90;;;;;;5009006;28;20764;-71
2023/02/20 12:05:36;;;;;;;8.80;3.83;;;8.90;99.90;;;;;;5009968;28;20204;-71
2023/02/20 12:08:39;;;;;;;7.20;3.37;;;8.70;99.90;;;;;;5011092;28;20216;-72
2023/02/20 12:11:09;;;;;;;12.10;3.90;;;8.70;99.90;;;;;;5013752;28;20221;-72
2023/02/20 12:13:40;;;;;;;6.07;3.50;;;8.80;99.90;;;;;;5010698;28;20221;-71
2023/02/20 12:16:34;;;;;;;6.33;3.00;;;8.80;99.90;;;;;;5015711;28;20266;-71
2023/02/20 12:19:09;;;;;;;4.90;3.50;;;8.80;99.90;;;;;;5012402;28;20201;-72
2023/02/20 12:21:58;;;;;;;6.47;3.10;;;8.80;99.90;;;;;;5013202;28;20364;-71
2023/02/20 12:24:49;;;;;;;5.17;3.10;;;8.90;99.90;;;;;;5010549;28;20204;-71
2023/02/20 12:27:36;;;;;;;7.20;3.23;;;8.90;99.90;;;;;;5010991;28;20644;-72
2023/02/20 12:30:15;;;;;;;6.73;3.10;;;9.00;99.90;;;;;;5011680;28;20193;-72
2023/02/20 12:32:51;;;;;;;7.50;2.90;;;9.00;99.90;;;;;;5009736;28;20578;-72
2023/02/20 12:35:31;;;;;;;8.07;3.50;;;9.00;99.90;;;;;;5009854;28;20210;-72
2023/02/20 12:38:34;;;;;;;6.23;3.07;;;9.10;99.90;;;;;;5010598;28;20284;-71
2023/02/20 12:41:24;;;;;;;5.30;2.20;;;9.10;99.90;;;;;;5008294;28;20200;-72
2023/02/20 12:44:02;;;;;;;10.00;3.13;;;9.10;99.90;;;;;;5014944;28;20303;-72
2023/02/20 12:46:34;;;;;;;3.33;2.43;;;9.10;99.90;;;;;;5011631;28;20194;-73
2023/02/20 12:49:17;;;;;;;4.37;2.27;;;9.20;99.90;;;;;;5008935;28;20218;-72
2023/02/20 12:51:51;;;;;;;3.20;2.40;;;9.20;99.90;;;;;;5010387;28;20195;-72
2023/02/20 12:54:33;;;;;;;3.00;2.30;;;9.20;99.90;;;;;;5011378;28;20202;-72
2023/02/20 12:57:09;;;;;;;4.20;2.30;;;9.30;99.90;;;;;;5009649;28;20188;-71
2023/02/20 12:59:45;;;;;;;2.93;2.20;;;9.30;99.90;;;;;;5024495;28;20570;-72
2023/02/20 13:02:20;;;;;;;3.47;1.90;;;9.30;99.90;;;;;;5006611;28;20234;-72
2023/02/20 13:04:53;;;;;;;5.73;2.30;;;9.30;99.90;;;;;;5009555;28;20562;-71
2023/02/20 13:07:25;;;;;;;2.23;2.03;;;9.30;99.90;;;;;;5004866;28;20202;-72
2023/02/20 13:10:00;;;;;;;3.10;1.80;;;9.30;99.90;;;;;;5012157;28;20207;-71
2023/02/20 13:12:29;;;;;;;2.00;1.80;;;9.30;99.90;;;;;;5009593;28;20276;-71
2023/02/20 13:15:06;;;;;;;3.17;1.97;;;9.40;99.90;;;;;;5009730;28;20658;-72
2023/02/20 13:17:41;;;;;;;3.47;1.77;;;9.40;99.90;;;;;;5008035;28;20599;-72
2023/02/20 13:20:17;;;;;;;2.80;1.60;;;9.40;99.90;;;;;;5010069;28;20205;-71
2023/02/20 13:22:57;;;;;;;2.57;1.70;;;9.40;99.90;;;;;;5007923;28;20204;-71
2023/02/20 13:25:42;;;;;;;5.00;1.90;;;9.40;99.90;;;;;;5009804;28;20188;-71
2023/02/20 13:28:44;;;;;;;2.87;1.97;;;9.50;99.90;;;;;;5008899;28;21068;-71
2023/02/20 13:31:17;;;;;;;2.07;1.57;;;9.50;99.90;;;;;;5011070;28;20253;-72
2023/02/20 13:33:46;;;;;;;5.00;2.00;;;9.50;99.90;;;;;;5010763;28;20656;-72
2023/02/20 13:36:41;;;;;;;3.40;1.70;;;9.40;99.90;;;;;;5008382;28;20203;-72
2023/02/20 13:39:39;;;;;;;1.87;1.70;;;9.50;99.90;;;;;;5013938;28;20286;-72